createdAt,value
2022-11-14T00:03:11.164Z,2.70
2022-11-14T00:06:18.214Z,3.13
2022-11-14T00:09:28.998Z,2.75
2022-11-14T00:12:35.797Z,2.78
2022-11-14T00:15:43.049Z,2.67
2022-11-14T00:18:50.254Z,2.80
2022-11-14T00:21:57.663Z,2.53
2022-11-14T00:25:06.795Z,2.90
2022-11-14T00:28:14.608Z,2.75
2022-11-14T00:31:21.260Z,2.85
2022-11-14T00:34:28.189Z,2.70
2022-11-14T00:37:34.877Z,3.03
2022-11-14T00:40:43.368Z,3.00
2022-11-14T00:43:49.943Z,2.63
2022-11-14T00:46:57.090Z,2.38
2022-11-14T00:50:03.827Z,2.67
2022-11-14T00:53:10.724Z,2.60
2022-11-14T00:56:18.855Z,2.78
2022-11-14T00:59:26.256Z,2.95
2022-11-14T01:02:32.882Z,2.80
2022-11-14T01:05:42.953Z,2.60
2022-11-14T01:08:52.235Z,2.88
2022-11-14T01:12:01.024Z,2.75
2022-11-14T01:15:08.750Z,2.40
2022-11-14T01:18:17.739Z,2.55
2022-11-14T01:21:25.653Z,2.65
2022-11-14T01:24:33.970Z,2.47
2022-11-14T01:27:42.282Z,2.60
2022-11-14T01:30:49.182Z,2.80
2022-11-14T01:33:56.278Z,2.58
2022-11-14T01:37:03.830Z,2.60
2022-11-14T01:40:11.698Z,2.33
2022-11-14T01:43:31.615Z,2.67
2022-11-14T01:46:41.834Z,2.60
2022-11-14T01:49:52.778Z,2.50
2022-11-14T01:52:59.931Z,2.22
2022-11-14T01:56:11.088Z,2.60
2022-11-14T01:59:21.853Z,2.65
2022-11-14T02:05:37.205Z,2.33
2022-11-14T02:08:45.149Z,2.08
2022-11-14T02:11:53.006Z,2.85
2022-11-14T02:15:03.232Z,2.75
2022-11-14T02:18:10.186Z,2.78
2022-11-14T02:21:18.943Z,2.40
2022-11-14T02:24:25.810Z,2.60
2022-11-14T02:27:34.113Z,2.75
2022-11-14T02:30:41.050Z,2.38
2022-11-14T02:33:48.545Z,2.30
2022-11-14T02:36:56.914Z,2.35
2022-11-14T02:40:04.914Z,2.50
2022-11-14T02:43:11.807Z,2.58
2022-11-14T02:46:19.346Z,2.60
2022-11-14T02:49:26.744Z,2.63
2022-11-14T02:52:35.001Z,2.67
2022-11-14T02:55:41.779Z,2.33
2022-11-14T02:58:48.875Z,2.42
2022-11-14T03:01:55.725Z,2.78
2022-11-14T03:05:03.395Z,2.30
2022-11-14T03:08:11.707Z,2.30
2022-11-14T03:11:19.514Z,2.45
2022-11-14T03:14:26.287Z,2.55
2022-11-14T03:17:34.300Z,2.45
2022-11-14T03:20:41.750Z,2.53
2022-11-14T03:23:50.337Z,2.17
2022-11-14T03:26:57.088Z,2.30
2022-11-14T03:30:04.011Z,2.45
2022-11-14T03:33:10.836Z,2.60
2022-11-14T03:36:18.174Z,2.67
2022-11-14T03:39:26.518Z,2.33
2022-11-14T03:42:35.383Z,2.42
2022-11-14T03:45:42.091Z,2.40
2022-11-14T03:48:49.619Z,2.10
2022-11-14T03:51:56.561Z,2.40
2022-11-14T03:55:05.263Z,2.40
2022-11-14T03:58:12.040Z,2.55
2022-11-14T04:01:19.505Z,2.40
2022-11-14T04:04:26.485Z,2.60
2022-11-14T04:07:33.764Z,2.22
2022-11-14T04:10:42.607Z,2.35
2022-11-14T04:13:49.977Z,2.50
2022-11-14T04:16:57.046Z,2.17
2022-11-14T04:20:03.763Z,2.60
2022-11-14T04:23:10.990Z,2.30
2022-11-14T04:26:19.554Z,2.22
2022-11-14T04:29:26.131Z,2.53
2022-11-14T04:32:33.723Z,2.40
2022-11-14T04:35:40.693Z,2.03
2022-11-14T04:38:48.528Z,2.15
2022-11-14T04:41:57.010Z,2.00
2022-11-14T04:45:04.755Z,2.47
2022-11-14T04:48:12.085Z,2.28
2022-11-14T04:51:19.236Z,2.15
2022-11-14T04:54:26.200Z,2.38
2022-11-14T04:57:35.114Z,2.00
2022-11-14T05:00:41.852Z,2.22
2022-11-14T05:03:48.608Z,2.55
2022-11-14T05:06:55.757Z,2.15
2022-11-14T05:10:03.591Z,2.33
2022-11-14T05:13:11.736Z,2.30
2022-11-14T05:16:23.654Z,2.10
2022-11-14T05:19:30.679Z,2.13
2022-11-14T05:22:38.142Z,2.25
2022-11-14T05:25:45.073Z,2.15
2022-11-14T05:28:53.665Z,2.30
2022-11-14T05:32:01.169Z,2.17
2022-11-14T05:35:09.058Z,2.05
2022-11-14T05:38:15.478Z,2.03
2022-11-14T05:41:22.822Z,2.30
2022-11-14T05:44:31.012Z,2.50
2022-11-14T05:47:38.284Z,2.28
2022-11-14T05:50:45.102Z,2.55
2022-11-14T05:53:52.200Z,2.10
2022-11-14T05:56:59.024Z,2.38
2022-11-14T06:00:09.362Z,2.28
2022-11-14T06:03:16.275Z,2.17
2022-11-14T06:06:23.644Z,1.95
2022-11-14T06:09:30.509Z,1.90
2022-11-14T06:12:37.689Z,2.17
2022-11-14T06:15:45.715Z,2.00
2022-11-14T06:18:54.873Z,2.17
2022-11-14T06:22:01.557Z,2.13
2022-11-14T06:25:09.352Z,2.22
2022-11-14T06:28:16.087Z,2.42
2022-11-14T06:31:25.976Z,2.30
2022-11-14T06:34:32.787Z,2.17
2022-11-14T06:37:39.501Z,1.98
2022-11-14T06:40:46.051Z,2.28
2022-11-14T06:43:54.827Z,1.80
2022-11-14T06:47:02.963Z,2.03
2022-11-14T06:50:10.466Z,1.90
2022-11-14T06:53:17.500Z,2.00
2022-11-14T06:56:24.888Z,1.98
2022-11-14T06:59:31.972Z,2.05
2022-11-14T07:02:40.605Z,2.00
2022-11-14T07:05:47.162Z,1.80
2022-11-14T07:08:55.190Z,2.30
2022-11-14T07:12:01.957Z,2.20
2022-11-14T07:15:10.343Z,2.00
2022-11-14T07:18:18.331Z,1.95
2022-11-14T07:21:25.736Z,2.00
2022-11-14T07:24:32.497Z,1.88
2022-11-14T07:27:39.473Z,2.00
2022-11-14T07:30:46.667Z,2.13
2022-11-14T07:33:56.219Z,2.05
2022-11-14T07:37:02.806Z,1.88
2022-11-14T07:40:10.913Z,2.08
2022-11-14T07:43:17.227Z,2.20
2022-11-14T07:46:24.310Z,2.00
2022-11-14T07:49:32.520Z,2.17
2022-11-14T07:52:39.814Z,2.20
2022-11-14T07:55:46.513Z,1.95
2022-11-14T07:58:53.821Z,2.30
2022-11-14T08:02:00.302Z,2.05
2022-11-14T08:05:09.174Z,2.00
2022-11-14T08:08:15.495Z,2.00
2022-11-14T08:11:42.890Z,2.10
2022-11-14T08:14:49.524Z,1.90
2022-11-14T08:17:59.421Z,1.85
2022-11-14T08:21:08.116Z,1.90
2022-11-14T08:24:15.442Z,2.10
2022-11-14T08:27:22.377Z,2.10
2022-11-14T08:30:30.310Z,2.10
2022-11-14T08:33:36.970Z,1.92
2022-11-14T08:36:45.604Z,1.95
2022-11-14T08:39:52.055Z,1.80
2022-11-14T08:43:02.676Z,1.98
2022-11-14T08:46:10.790Z,2.13
2022-11-14T08:49:17.858Z,2.00
2022-11-14T08:52:26.111Z,2.03
2022-11-14T08:55:33.078Z,1.90
2022-11-14T08:58:40.370Z,1.80
2022-11-14T09:01:47.113Z,2.00
2022-11-14T09:04:53.778Z,2.10
2022-11-14T09:08:02.601Z,2.00
2022-11-14T09:11:10.206Z,2.10
2022-11-14T09:14:18.412Z,1.75
2022-11-14T09:17:25.413Z,1.90
2022-11-14T09:20:37.420Z,1.98
2022-11-14T09:23:49.895Z,1.80
2022-11-14T09:26:57.426Z,1.70
2022-11-14T09:30:04.512Z,1.77
2022-11-14T09:33:12.142Z,1.88
2022-11-14T09:36:20.098Z,1.77
2022-11-14T09:39:28.537Z,1.70
2022-11-14T09:42:52.820Z,1.98
2022-11-14T09:45:59.904Z,1.73
2022-11-14T09:49:12.807Z,1.70
2022-11-14T09:52:29.462Z,2.00
2022-11-14T09:55:37.654Z,2.05
2022-11-14T09:58:44.994Z,2.00
2022-11-14T10:01:58.710Z,2.00
2022-11-14T10:05:47.813Z,2.10
2022-11-14T10:09:14.031Z,2.10
2022-11-14T10:12:28.289Z,2.10
2022-11-14T10:15:44.206Z,1.90
2022-11-14T10:19:11.079Z,1.98
2022-11-14T10:22:27.265Z,1.70
2022-11-14T10:25:47.291Z,1.67
2022-11-14T10:29:34.900Z,1.73
2022-11-14T10:32:54.102Z,1.88
2022-11-14T10:36:08.058Z,1.80
2022-11-14T10:39:20.497Z,1.83
2022-11-14T10:42:34.001Z,1.70
2022-11-14T10:45:45.934Z,1.65
2022-11-14T10:52:12.377Z,1.70
2022-11-14T10:55:31.999Z,1.52
2022-11-14T10:58:49.937Z,1.55
2022-11-14T11:01:59.480Z,1.88
2022-11-14T11:05:16.002Z,1.70
2022-11-14T11:08:43.790Z,1.52
2022-11-14T11:11:57.680Z,1.58
2022-11-14T11:15:16.449Z,2.00
2022-11-14T11:18:31.187Z,1.60
2022-11-14T11:21:49.874Z,1.65
2022-11-14T11:24:57.292Z,1.83
2022-11-14T11:28:09.513Z,1.73
2022-11-14T11:31:16.672Z,1.65
2022-11-14T11:34:27.728Z,1.83
2022-11-14T11:37:40.354Z,1.80
2022-11-14T11:40:50.780Z,1.60
2022-11-14T11:44:01.090Z,2.03
2022-11-14T11:47:13.575Z,1.63
2022-11-14T11:50:24.742Z,1.50
2022-11-14T11:53:35.880Z,1.70
2022-11-14T11:56:45.373Z,1.50
2022-11-14T12:00:00.526Z,1.77
2022-11-14T12:03:14.073Z,1.80
2022-11-14T12:06:25.760Z,1.50
2022-11-14T12:10:08.778Z,1.60
2022-11-14T12:13:34.544Z,1.70
2022-11-14T12:17:33.589Z,1.65
2022-11-14T12:20:58.721Z,1.75
2022-11-14T12:24:36.545Z,1.70
2022-11-14T12:27:56.920Z,1.67
2022-11-14T12:31:06.867Z,1.70
2022-11-14T12:34:20.784Z,1.38
2022-11-14T12:37:34.476Z,1.80
2022-11-14T12:40:51.563Z,1.60
2022-11-14T12:44:19.981Z,1.80
2022-11-14T12:47:27.881Z,1.77
2022-11-14T12:50:43.035Z,1.70
2022-11-14T12:53:50.422Z,1.80
2022-11-14T12:57:03.716Z,1.70
2022-11-14T13:00:11.703Z,1.67
2022-11-14T13:03:28.865Z,1.63
2022-11-14T13:06:47.144Z,1.77
2022-11-14T13:10:12.912Z,1.77
2022-11-14T13:13:39.562Z,1.60
2022-11-14T13:17:04.326Z,1.70
2022-11-14T13:20:48.859Z,1.85
2022-11-14T13:23:59.153Z,1.63
2022-11-14T13:27:52.102Z,1.40
2022-11-14T13:31:21.308Z,1.67
2022-11-14T13:34:39.639Z,1.60
2022-11-14T13:38:04.064Z,1.65
2022-11-14T13:41:48.363Z,1.60
2022-11-14T13:45:15.011Z,1.70
2022-11-14T13:48:57.399Z,1.60
2022-11-14T13:52:04.540Z,1.83
2022-11-14T13:55:21.482Z,1.40
2022-11-14T13:58:43.481Z,1.67
2022-11-14T14:02:06.292Z,1.70
2022-11-14T14:05:26.630Z,1.88
2022-11-14T14:08:49.536Z,1.77
2022-11-14T14:12:25.390Z,1.63
2022-11-14T14:15:38.156Z,1.83
2022-11-14T14:19:01.216Z,1.40
2022-11-14T14:22:16.319Z,1.73
2022-11-14T14:25:30.945Z,1.60
2022-11-14T14:28:47.753Z,1.77
2022-11-14T14:31:54.442Z,1.60
2022-11-14T14:35:01.846Z,1.77
2022-11-14T14:38:14.818Z,1.50
2022-11-14T14:41:22.258Z,1.48
2022-11-14T14:44:33.163Z,1.60
2022-11-14T14:47:42.266Z,1.65
2022-11-14T14:50:51.516Z,1.55
2022-11-14T14:54:00.080Z,1.58
2022-11-14T14:57:06.914Z,1.60
2022-11-14T15:00:20.689Z,1.58
2022-11-14T15:03:36.437Z,1.60
2022-11-14T15:06:47.058Z,1.70
2022-11-14T15:09:57.205Z,1.55
2022-11-14T15:13:04.550Z,1.48
2022-11-14T15:16:11.851Z,1.55
2022-11-14T15:19:22.118Z,1.88
2022-11-14T15:22:30.229Z,1.58
2022-11-14T15:25:39.131Z,1.67
2022-11-14T15:28:45.977Z,1.70
2022-11-14T15:31:56.546Z,1.80
2022-11-14T15:35:25.678Z,1.60
2022-11-14T15:38:47.941Z,1.58
2022-11-14T15:42:14.009Z,1.67
2022-11-14T15:45:30.407Z,1.65
2022-11-14T15:48:42.692Z,1.77
2022-11-14T15:51:52.841Z,1.52
2022-11-14T15:54:59.440Z,1.83
2022-11-14T15:58:27.770Z,1.40
2022-11-14T16:01:34.487Z,1.70
2022-11-14T16:04:47.296Z,1.60
2022-11-14T16:07:55.031Z,1.70
2022-11-14T16:11:02.367Z,1.67
2022-11-14T16:14:10.130Z,1.70
2022-11-14T16:17:18.788Z,1.27
2022-11-14T16:20:27.274Z,1.98
2022-11-14T16:23:34.708Z,1.65
2022-11-14T16:26:41.486Z,1.77
2022-11-14T16:29:49.874Z,1.60
2022-11-14T16:32:56.629Z,1.50
2022-11-14T16:36:04.011Z,1.58
2022-11-14T16:39:13.758Z,1.75
2022-11-14T16:42:21.397Z,1.57
2022-11-14T16:45:29.496Z,1.67
2022-11-14T16:48:36.801Z,1.70
2022-11-14T16:51:48.783Z,2.03
2022-11-14T16:54:57.003Z,1.92
2022-11-14T16:58:03.468Z,1.65
2022-11-14T17:01:21.056Z,1.90
2022-11-14T17:04:28.279Z,1.70
2022-11-14T17:07:35.526Z,1.80
2022-11-14T17:10:42.622Z,1.73
2022-11-14T17:13:50.147Z,1.60
2022-11-14T17:17:01.665Z,1.60
2022-11-14T17:20:10.990Z,1.90
2022-11-14T17:23:17.603Z,1.60
2022-11-14T17:26:25.306Z,1.67
2022-11-14T17:29:32.090Z,1.90
2022-11-14T17:32:40.481Z,1.35
2022-11-14T17:35:47.502Z,1.80
2022-11-14T17:38:55.237Z,1.65
2022-11-14T17:42:02.333Z,1.70
2022-11-14T17:45:10.618Z,1.60
2022-11-14T17:48:18.861Z,1.70
2022-11-14T17:51:26.899Z,1.80
2022-11-14T17:54:37.608Z,1.80
2022-11-14T17:57:45.048Z,1.83
2022-11-14T18:00:52.930Z,1.60
2022-11-14T18:04:05.843Z,1.73
2022-11-14T18:07:13.153Z,1.60
2022-11-14T18:10:20.231Z,1.70
2022-11-14T18:13:26.653Z,1.85
2022-11-14T18:16:57.431Z,1.90
2022-11-14T18:20:02.127Z,1.75
2022-11-14T18:23:10.337Z,1.80
2022-11-14T18:26:18.212Z,1.88
2022-11-14T18:29:25.611Z,1.60
2022-11-14T18:32:32.337Z,1.60
2022-11-14T18:35:41.154Z,1.52
2022-11-14T18:38:47.985Z,1.60
2022-11-14T18:41:55.015Z,1.90
2022-11-14T18:45:01.414Z,2.00
2022-11-14T18:48:08.708Z,1.95
2022-11-14T18:51:18.550Z,1.92
2022-11-14T18:54:25.955Z,1.67
2022-11-14T18:57:32.803Z,1.85
2022-11-14T19:00:40.403Z,2.00
2022-11-14T19:03:47.557Z,1.92
2022-11-14T19:06:56.541Z,1.60
2022-11-14T19:10:03.197Z,1.60
2022-11-14T19:13:10.903Z,1.65
2022-11-14T19:16:17.661Z,1.77
2022-11-14T19:19:25.774Z,1.88
2022-11-14T19:22:34.104Z,1.80
2022-11-14T19:25:41.736Z,1.98
2022-11-14T19:28:49.472Z,1.98
2022-11-14T19:31:56.660Z,1.50
2022-11-14T19:35:03.611Z,1.70
2022-11-14T19:38:12.348Z,1.80
2022-11-14T19:41:21.346Z,1.60
2022-11-14T19:44:29.087Z,1.90
2022-11-14T19:47:35.586Z,1.83
2022-11-14T19:50:42.534Z,1.58
2022-11-14T19:53:50.827Z,1.75
2022-11-14T19:56:58.117Z,1.80
2022-11-14T20:00:05.795Z,1.75
2022-11-14T20:03:13.611Z,1.60
2022-11-14T20:06:23.363Z,1.55
2022-11-14T20:09:32.720Z,1.73
2022-11-14T20:12:39.729Z,1.98
2022-11-14T20:15:47.071Z,1.90
2022-11-14T20:18:58.815Z,1.77
2022-11-14T20:22:07.747Z,1.60
2022-11-14T20:25:17.088Z,1.60
2022-11-14T20:28:25.843Z,1.67
2022-11-14T20:31:33.594Z,1.90
2022-11-14T20:34:41.356Z,1.80
2022-11-14T20:37:48.703Z,1.80
2022-11-14T20:40:58.704Z,1.90
2022-11-14T20:44:05.816Z,1.48
2022-11-14T20:47:12.991Z,1.52
2022-11-14T20:50:20.546Z,1.65
2022-11-14T20:53:28.661Z,1.90
2022-11-14T20:56:36.896Z,1.77
2022-11-14T20:59:44.669Z,1.80
2022-11-14T21:02:51.785Z,1.60
2022-11-14T21:06:01.030Z,1.75
2022-11-14T21:09:07.791Z,1.58
2022-11-14T21:12:16.669Z,1.63
2022-11-14T21:15:23.255Z,1.70
2022-11-14T21:18:30.994Z,1.60
2022-11-14T21:21:39.022Z,1.95
2022-11-14T21:24:46.522Z,1.70
2022-11-14T21:27:54.394Z,1.52
2022-11-14T21:31:03.706Z,1.70
2022-11-14T21:34:13.060Z,1.80
2022-11-14T21:37:20.216Z,1.75
2022-11-14T21:40:26.845Z,1.65
2022-11-14T21:43:35.621Z,1.50
2022-11-14T21:46:42.692Z,1.50
2022-11-14T21:49:50.984Z,1.70
2022-11-14T21:52:58.469Z,1.40
2022-11-14T21:56:10.180Z,1.63
2022-11-14T21:59:21.447Z,1.70
2022-11-14T22:02:45.897Z,1.70
2022-11-14T22:05:57.332Z,1.67
2022-11-14T22:09:05.053Z,1.58
2022-11-14T22:12:12.059Z,1.50
2022-11-14T22:15:20.620Z,1.88
2022-11-14T22:18:27.526Z,1.77
2022-11-14T22:21:34.754Z,1.70
2022-11-14T22:24:41.538Z,1.90
2022-11-14T22:27:49.052Z,1.85
2022-11-14T22:31:08.534Z,1.60
2022-11-14T22:34:15.524Z,1.50
2022-11-14T22:37:21.991Z,1.83
2022-11-14T22:40:28.690Z,1.80
2022-11-14T22:43:36.097Z,1.67
2022-11-14T22:46:44.443Z,1.70
2022-11-14T22:49:51.541Z,1.70
2022-11-14T22:53:00.622Z,1.70
2022-11-14T22:56:09.748Z,1.60
2022-11-14T22:59:17.361Z,1.38
2022-11-14T23:02:25.498Z,1.80
2022-11-14T23:05:36.628Z,1.80
2022-11-14T23:08:43.369Z,1.63
2022-11-14T23:11:50.792Z,1.70
2022-11-14T23:14:57.164Z,1.70
2022-11-14T23:18:06.641Z,1.60
2022-11-14T23:21:15.273Z,1.55
2022-11-14T23:24:22.026Z,1.65
2022-11-14T23:27:28.765Z,1.40
2022-11-14T23:30:36.514Z,1.60
2022-11-14T23:33:44.811Z,1.55
2022-11-14T23:36:52.005Z,1.80
2022-11-14T23:39:58.696Z,1.60
2022-11-14T23:43:05.584Z,1.52
2022-11-14T23:46:12.598Z,1.58
2022-11-14T23:49:21.051Z,1.60
2022-11-14T23:52:28.137Z,1.83
2022-11-14T23:55:35.370Z,1.33
2022-11-14T23:58:42.757Z,1.65
